sensor_id;sensor_type;location;lat;lon;timestamp;pressure;altitude;pressure_sealevel;temperature;humidity
79131;BME280;72396;45.194;9.142;2024-01-16T00:02:10;99532.16;;;5.57;64.28
79131;BME280;72396;45.194;9.142;2024-01-16T00:04:38;99535.59;;;5.29;65.17
79131;BME280;72396;45.194;9.142;2024-01-16T00:07:05;99529.50;;;5.29;64.68
79131;BME280;72396;45.194;9.142;2024-01-16T00:09:33;99538.59;;;5.17;64.74
79131;BME280;72396;45.194;9.142;2024-01-16T00:11:59;99543.41;;;5.31;64.96
79131;BME280;72396;45.194;9.142;2024-01-16T00:14:25;99534.59;;;5.33;64.62
79131;BME280;72396;45.194;9.142;2024-01-16T00:16:50;99532.00;;;5.33;64.71
79131;BME280;72396;45.194;9.142;2024-01-16T00:19:16;99530.34;;;5.31;64.24
79131;BME280;72396;45.194;9.142;2024-01-16T00:21:42;99529.75;;;5.21;64.63
79131;BME280;72396;45.194;9.142;2024-01-16T00:24:08;99539.03;;;5.31;64.09
79131;BME280;72396;45.194;9.142;2024-01-16T00:26:34;99538.72;;;5.12;64.78
79131;BME280;72396;45.194;9.142;2024-01-16T00:28:59;99542.06;;;5.17;64.72
79131;BME280;72396;45.194;9.142;2024-01-16T00:31:26;99543.59;;;5.24;63.68
79131;BME280;72396;45.194;9.142;2024-01-16T00:33:51;99542.47;;;4.73;66.03
79131;BME280;72396;45.194;9.142;2024-01-16T00:36:16;99556.00;;;4.54;66.72
79131;BME280;72396;45.194;9.142;2024-01-16T00:38:42;99551.09;;;4.75;65.76
79131;BME280;72396;45.194;9.142;2024-01-16T00:41:07;99552.09;;;5.01;64.97
79131;BME280;72396;45.194;9.142;2024-01-16T00:43:32;99563.41;;;5.02;64.86
79131;BME280;72396;45.194;9.142;2024-01-16T00:46:00;99554.13;;;4.91;64.93
79131;BME280;72396;45.194;9.142;2024-01-16T00:48:25;99558.28;;;4.98;65.21
79131;BME280;72396;45.194;9.142;2024-01-16T00:50:51;99562.38;;;4.76;65.88
79131;BME280;72396;45.194;9.142;2024-01-16T00:53:16;99565.44;;;4.92;65.51
79131;BME280;72396;45.194;9.142;2024-01-16T00:55:42;99578.81;;;5.11;65.14
79131;BME280;72396;45.194;9.142;2024-01-16T00:58:07;99558.78;;;5.11;64.01
79131;BME280;72396;45.194;9.142;2024-01-16T01:00:33;99576.66;;;5.25;64.66
79131;BME280;72396;45.194;9.142;2024-01-16T01:03:00;99582.00;;;5.21;64.29
79131;BME280;72396;45.194;9.142;2024-01-16T01:05:25;99579.03;;;5.03;64.19
79131;BME280;72396;45.194;9.142;2024-01-16T01:07:57;99587.84;;;5.01;64.37
79131;BME280;72396;45.194;9.142;2024-01-16T01:10:23;99595.72;;;4.99;64.81
79131;BME280;72396;45.194;9.142;2024-01-16T01:12:49;99593.41;;;4.88;64.78
79131;BME280;72396;45.194;9.142;2024-01-16T01:15:14;99582.09;;;4.88;65.17
79131;BME280;72396;45.194;9.142;2024-01-16T01:17:40;99596.63;;;4.98;65.69
79131;BME280;72396;45.194;9.142;2024-01-16T01:20:07;99607.56;;;4.81;66.23
79131;BME280;72396;45.194;9.142;2024-01-16T01:22:33;99593.03;;;4.69;67.56
79131;BME280;72396;45.194;9.142;2024-01-16T01:24:58;99587.50;;;4.81;66.87
79131;BME280;72396;45.194;9.142;2024-01-16T01:27:23;99602.25;;;4.82;66.42
79131;BME280;72396;45.194;9.142;2024-01-16T01:29:49;99618.31;;;5.00;66.22
79131;BME280;72396;45.194;9.142;2024-01-16T01:32:14;99614.47;;;5.14;65.56
79131;BME280;72396;45.194;9.142;2024-01-16T01:34:41;99618.94;;;5.10;65.20
79131;BME280;72396;45.194;9.142;2024-01-16T01:37:07;99620.91;;;5.02;66.48
79131;BME280;72396;45.194;9.142;2024-01-16T01:39:32;99614.00;;;4.99;66.24
79131;BME280;72396;45.194;9.142;2024-01-16T01:41:58;99637.41;;;5.04;65.81
79131;BME280;72396;45.194;9.142;2024-01-16T01:44:23;99628.00;;;4.96;65.82
79131;BME280;72396;45.194;9.142;2024-01-16T01:46:50;99643.81;;;4.92;66.98
79131;BME280;72396;45.194;9.142;2024-01-16T01:49:16;99646.16;;;5.01;66.94
79131;BME280;72396;45.194;9.142;2024-01-16T01:51:42;99650.63;;;5.29;65.55
79131;BME280;72396;45.194;9.142;2024-01-16T01:54:08;99638.31;;;5.03;65.64
79131;BME280;72396;45.194;9.142;2024-01-16T01:56:34;99659.09;;;5.07;65.76
79131;BME280;72396;45.194;9.142;2024-01-16T01:59:00;99642.03;;;4.94;66.22
79131;BME280;72396;45.194;9.142;2024-01-16T02:01:28;99652.69;;;4.86;65.97
79131;BME280;72396;45.194;9.142;2024-01-16T02:03:55;99664.94;;;4.84;66.28
79131;BME280;72396;45.194;9.142;2024-01-16T02:06:20;99667.69;;;4.78;66.36
79131;BME280;72396;45.194;9.142;2024-01-16T02:08:45;99673.31;;;4.95;65.98
79131;BME280;72396;45.194;9.142;2024-01-16T02:11:11;99665.56;;;4.92;65.50
79131;BME280;72396;45.194;9.142;2024-01-16T02:13:37;99669.38;;;4.80;65.68
79131;BME280;72396;45.194;9.142;2024-01-16T02:16:03;99673.06;;;4.73;66.26
79131;BME280;72396;45.194;9.142;2024-01-16T02:18:29;99670.88;;;4.54;66.09
79131;BME280;72396;45.194;9.142;2024-01-16T02:21:00;99666.81;;;4.44;66.55
79131;BME280;72396;45.194;9.142;2024-01-16T02:23:29;99665.09;;;4.43;66.28
79131;BME280;72396;45.194;9.142;2024-01-16T02:25:55;99679.59;;;4.55;66.19
79131;BME280;72396;45.194;9.142;2024-01-16T02:28:20;99680.00;;;4.38;66.60
79131;BME280;72396;45.194;9.142;2024-01-16T02:30:46;99679.97;;;4.39;66.24
79131;BME280;72396;45.194;9.142;2024-01-16T02:33:11;99681.16;;;4.26;66.68
79131;BME280;72396;45.194;9.142;2024-01-16T02:35:37;99686.00;;;4.04;66.95
79131;BME280;72396;45.194;9.142;2024-01-16T02:38:02;99680.50;;;4.18;67.08
79131;BME280;72396;45.194;9.142;2024-01-16T02:40:27;99683.50;;;4.37;66.26
79131;BME280;72396;45.194;9.142;2024-01-16T02:42:53;99680.06;;;4.36;65.35
79131;BME280;72396;45.194;9.142;2024-01-16T02:45:18;99689.03;;;4.24;66.18
79131;BME280;72396;45.194;9.142;2024-01-16T02:47:44;99696.34;;;4.08;65.82
79131;BME280;72396;45.194;9.142;2024-01-16T02:50:09;99677.16;;;4.11;66.12
79131;BME280;72396;45.194;9.142;2024-01-16T02:52:37;99693.50;;;4.19;65.51
79131;BME280;72396;45.194;9.142;2024-01-16T02:55:02;99700.19;;;4.31;64.65
79131;BME280;72396;45.194;9.142;2024-01-16T02:57:28;99682.50;;;3.65;66.41
79131;BME280;72396;45.194;9.142;2024-01-16T02:59:53;99701.56;;;4.08;65.96
79131;BME280;72396;45.194;9.142;2024-01-16T03:02:19;99692.63;;;3.81;65.26
79131;BME280;72396;45.194;9.142;2024-01-16T03:04:44;99717.28;;;3.66;65.88
79131;BME280;72396;45.194;9.142;2024-01-16T03:07:09;99713.22;;;3.93;65.71
79131;BME280;72396;45.194;9.142;2024-01-16T03:09:35;99709.00;;;3.88;65.08
79131;BME280;72396;45.194;9.142;2024-01-16T03:12:00;99729.59;;;3.59;65.45
79131;BME280;72396;45.194;9.142;2024-01-16T03:14:25;99728.03;;;3.49;65.47
79131;BME280;72396;45.194;9.142;2024-01-16T03:16:51;99736.31;;;3.69;64.72
79131;BME280;72396;45.194;9.142;2024-01-16T03:19:16;99747.25;;;3.45;65.46
79131;BME280;72396;45.194;9.142;2024-01-16T03:21:42;99737.72;;;3.42;65.96
79131;BME280;72396;45.194;9.142;2024-01-16T03:24:08;99754.44;;;3.32;66.32
79131;BME280;72396;45.194;9.142;2024-01-16T03:26:36;99765.28;;;3.08;67.78
79131;BME280;72396;45.194;9.142;2024-01-16T03:29:02;99757.47;;;3.08;68.00
79131;BME280;72396;45.194;9.142;2024-01-16T03:31:27;99748.03;;;3.03;68.00
79131;BME280;72396;45.194;9.142;2024-01-16T03:33:53;99724.28;;;3.18;67.20
79131;BME280;72396;45.194;9.142;2024-01-16T03:36:18;99735.16;;;3.40;66.58
79131;BME280;72396;45.194;9.142;2024-01-16T03:38:43;99741.06;;;3.49;66.39
79131;BME280;72396;45.194;9.142;2024-01-16T03:41:10;99744.56;;;3.49;65.05
79131;BME280;72396;45.194;9.142;2024-01-16T03:43:36;99748.41;;;3.74;65.43
79131;BME280;72396;45.194;9.142;2024-01-16T03:46:01;99753.13;;;3.54;65.23
79131;BME280;72396;45.194;9.142;2024-01-16T03:48:27;99758.50;;;3.47;65.87
79131;BME280;72396;45.194;9.142;2024-01-16T03:50:52;99755.50;;;3.20;65.90
79131;BME280;72396;45.194;9.142;2024-01-16T03:53:20;99761.03;;;3.50;65.67
79131;BME280;72396;45.194;9.142;2024-01-16T03:55:45;99763.38;;;3.17;65.93
79131;BME280;72396;45.194;9.142;2024-01-16T03:58:10;99765.88;;;3.23;66.06
79131;BME280;72396;45.194;9.142;2024-01-16T04:00:35;99754.88;;;3.08;66.06
79131;BME280;72396;45.194;9.142;2024-01-16T04:03:01;99775.50;;;3.19;66.12
79131;BME280;72396;45.194;9.142;2024-01-16T04:05:27;99772.59;;;3.36;65.41
79131;BME280;72396;45.194;9.142;2024-01-16T04:07:52;99779.69;;;3.28;65.88
79131;BME280;72396;45.194;9.142;2024-01-16T04:10:18;99773.38;;;2.93;66.28
79131;BME280;72396;45.194;9.142;2024-01-16T04:12:43;99796.63;;;3.02;66.31
79131;BME280;72396;45.194;9.142;2024-01-16T04:15:09;99800.13;;;3.01;66.52
79131;BME280;72396;45.194;9.142;2024-01-16T04:17:34;99804.19;;;3.19;66.24
79131;BME280;72396;45.194;9.142;2024-01-16T04:19:59;99802.47;;;3.18;65.83
79131;BME280;72396;45.194;9.142;2024-01-16T04:22:25;99792.94;;;3.16;65.59
79131;BME280;72396;45.194;9.142;2024-01-16T04:24:50;99794.66;;;3.17;65.80
79131;BME280;72396;45.194;9.142;2024-01-16T04:27:15;99803.50;;;3.08;66.29
79131;BME280;72396;45.194;9.142;2024-01-16T04:29:41;99787.19;;;2.96;66.39
79131;BME280;72396;45.194;9.142;2024-01-16T04:32:06;99810.34;;;3.13;66.56
79131;BME280;72396;45.194;9.142;2024-01-16T04:34:32;99808.84;;;3.00;67.28
79131;BME280;72396;45.194;9.142;2024-01-16T04:36:57;99812.31;;;2.99;67.24
79131;BME280;72396;45.194;9.142;2024-01-16T04:39:22;99794.59;;;3.20;66.87
79131;BME280;72396;45.194;9.142;2024-01-16T04:41:49;99801.09;;;2.95;67.77
79131;BME280;72396;45.194;9.142;2024-01-16T04:44:14;99799.31;;;2.99;67.82
79131;BME280;72396;45.194;9.142;2024-01-16T04:46:40;99810.47;;;3.07;67.97
79131;BME280;72396;45.194;9.142;2024-01-16T04:49:05;99818.09;;;3.18;67.95
79131;BME280;72396;45.194;9.142;2024-01-16T04:51:30;99815.75;;;3.01;68.09
79131;BME280;72396;45.194;9.142;2024-01-16T04:53:56;99823.44;;;3.10;68.46
79131;BME280;72396;45.194;9.142;2024-01-16T04:56:21;99804.03;;;3.27;67.99
79131;BME280;72396;45.194;9.142;2024-01-16T04:58:46;99829.28;;;3.25;67.90
79131;BME280;72396;45.194;9.142;2024-01-16T05:01:12;99824.31;;;3.09;68.12
79131;BME280;72396;45.194;9.142;2024-01-16T05:03:38;99830.16;;;3.24;67.76
79131;BME280;72396;45.194;9.142;2024-01-16T05:06:03;99828.72;;;3.04;67.64
79131;BME280;72396;45.194;9.142;2024-01-16T05:08:28;99834.31;;;2.81;68.68
79131;BME280;72396;45.194;9.142;2024-01-16T05:10:55;99838.25;;;3.05;68.81
79131;BME280;72396;45.194;9.142;2024-01-16T05:13:21;99833.47;;;2.80;68.32
79131;BME280;72396;45.194;9.142;2024-01-16T05:15:46;99843.47;;;3.07;68.61
79131;BME280;72396;45.194;9.142;2024-01-16T05:18:12;99843.63;;;2.96;68.58
79131;BME280;72396;45.194;9.142;2024-01-16T05:20:37;99853.22;;;2.94;68.73
79131;BME280;72396;45.194;9.142;2024-01-16T05:23:02;99849.31;;;3.20;68.09
79131;BME280;72396;45.194;9.142;2024-01-16T05:25:28;99850.06;;;3.28;68.05
79131;BME280;72396;45.194;9.142;2024-01-16T05:27:54;99853.63;;;3.21;67.72
79131;BME280;72396;45.194;9.142;2024-01-16T05:30:19;99860.88;;;3.05;68.43
79131;BME280;72396;45.194;9.142;2024-01-16T05:32:44;99875.59;;;3.06;68.86
79131;BME280;72396;45.194;9.142;2024-01-16T05:35:10;99867.03;;;2.97;69.01
79131;BME280;72396;45.194;9.142;2024-01-16T05:37:35;99880.63;;;3.17;68.99
79131;BME280;72396;45.194;9.142;2024-01-16T05:40:01;99883.41;;;3.07;69.58
79131;BME280;72396;45.194;9.142;2024-01-16T05:42:28;99885.06;;;3.11;69.00
79131;BME280;72396;45.194;9.142;2024-01-16T05:44:53;99881.41;;;3.22;68.72
79131;BME280;72396;45.194;9.142;2024-01-16T05:47:18;99884.66;;;3.36;68.97
79131;BME280;72396;45.194;9.142;2024-01-16T05:49:44;99891.84;;;3.22;68.83
79131;BME280;72396;45.194;9.142;2024-01-16T05:52:09;99887.44;;;3.27;69.10
79131;BME280;72396;45.194;9.142;2024-01-16T05:54:35;99894.69;;;3.06;69.78
79131;BME280;72396;45.194;9.142;2024-01-16T05:57:00;99889.34;;;3.14;69.51
79131;BME280;72396;45.194;9.142;2024-01-16T05:59:26;99888.25;;;3.29;68.78
79131;BME280;72396;45.194;9.142;2024-01-16T06:01:51;99907.41;;;3.28;69.33
79131;BME280;72396;45.194;9.142;2024-01-16T06:04:16;99899.25;;;3.47;68.77
79131;BME280;72396;45.194;9.142;2024-01-16T06:06:42;99890.00;;;3.30;69.05
79131;BME280;72396;45.194;9.142;2024-01-16T06:09:12;99914.13;;;3.41;68.81
79131;BME280;72396;45.194;9.142;2024-01-16T06:11:39;99924.09;;;3.15;69.76
79131;BME280;72396;45.194;9.142;2024-01-16T06:14:06;99911.13;;;3.11;69.76
79131;BME280;72396;45.194;9.142;2024-01-16T06:16:31;99918.91;;;3.15;69.89
79131;BME280;72396;45.194;9.142;2024-01-16T06:18:57;99912.91;;;3.06;70.07
79131;BME280;72396;45.194;9.142;2024-01-16T06:21:23;99905.75;;;3.21;69.45
79131;BME280;72396;45.194;9.142;2024-01-16T06:23:48;99916.75;;;3.40;69.62
79131;BME280;72396;45.194;9.142;2024-01-16T06:26:13;99915.81;;;3.44;68.49
79131;BME280;72396;45.194;9.142;2024-01-16T06:28:39;99927.81;;;3.53;69.00
79131;BME280;72396;45.194;9.142;2024-01-16T06:31:07;99935.34;;;3.17;70.08
79131;BME280;72396;45.194;9.142;2024-01-16T06:33:32;99943.06;;;3.24;70.10
79131;BME280;72396;45.194;9.142;2024-01-16T06:35:58;99941.16;;;3.34;69.65
79131;BME280;72396;45.194;9.142;2024-01-16T06:38:23;99943.72;;;3.37;69.57
79131;BME280;72396;45.194;9.142;2024-01-16T06:40:48;99941.09;;;3.39;69.63
79131;BME280;72396;45.194;9.142;2024-01-16T06:43:15;99943.06;;;3.24;69.65
79131;BME280;72396;45.194;9.142;2024-01-16T06:45:42;99937.06;;;3.18;69.88
79131;BME280;72396;45.194;9.142;2024-01-16T06:48:07;99947.16;;;3.39;69.67
79131;BME280;72396;45.194;9.142;2024-01-16T06:50:33;99954.53;;;3.12;70.09
79131;BME280;72396;45.194;9.142;2024-01-16T06:52:58;99943.22;;;3.15;70.26
79131;BME280;72396;45.194;9.142;2024-01-16T06:55:23;99969.91;;;3.30;70.47
79131;BME280;72396;45.194;9.142;2024-01-16T06:57:49;99961.41;;;3.17;70.32
79131;BME280;72396;45.194;9.142;2024-01-16T07:00:15;99972.53;;;3.28;70.02
79131;BME280;72396;45.194;9.142;2024-01-16T07:02:40;99981.91;;;3.41;69.74
79131;BME280;72396;45.194;9.142;2024-01-16T07:05:11;99985.34;;;3.44;69.66
79131;BME280;72396;45.194;9.142;2024-01-16T07:07:36;99985.47;;;3.34;69.92
79131;BME280;72396;45.194;9.142;2024-01-16T07:10:02;99988.72;;;3.50;69.68
79131;BME280;72396;45.194;9.142;2024-01-16T07:12:27;99993.72;;;3.63;68.66
79131;BME280;72396;45.194;9.142;2024-01-16T07:14:53;100005.38;;;3.40;69.69
79131;BME280;72396;45.194;9.142;2024-01-16T07:17:18;100020.72;;;3.59;69.27
79131;BME280;72396;45.194;9.142;2024-01-16T07:19:44;100020.03;;;3.47;69.22
79131;BME280;72396;45.194;9.142;2024-01-16T07:22:09;100016.69;;;3.40;69.34
79131;BME280;72396;45.194;9.142;2024-01-16T07:24:34;100020.91;;;3.48;69.54
79131;BME280;72396;45.194;9.142;2024-01-16T07:27:00;100037.38;;;3.50;69.23
79131;BME280;72396;45.194;9.142;2024-01-16T07:29:25;100040.03;;;3.48;69.23
79131;BME280;72396;45.194;9.142;2024-01-16T07:31:51;100048.69;;;3.49;69.38
79131;BME280;72396;45.194;9.142;2024-01-16T07:34:17;100054.91;;;3.38;69.91
79131;BME280;72396;45.194;9.142;2024-01-16T07:36:47;100056.41;;;3.57;69.03
79131;BME280;72396;45.194;9.142;2024-01-16T07:39:12;100071.09;;;3.62;68.99
79131;BME280;72396;45.194;9.142;2024-01-16T07:41:37;100072.66;;;3.76;68.06
79131;BME280;72396;45.194;9.142;2024-01-16T07:44:03;100081.66;;;3.53;69.32
79131;BME280;72396;45.194;9.142;2024-01-16T07:46:28;100068.97;;;3.28;69.44
79131;BME280;72396;45.194;9.142;2024-01-16T07:48:54;100076.53;;;3.45;69.60
79131;BME280;72396;45.194;9.142;2024-01-16T07:51:19;100090.03;;;3.12;70.07
79131;BME280;72396;45.194;9.142;2024-01-16T07:53:45;100081.22;;;3.20;70.07
79131;BME280;72396;45.194;9.142;2024-01-16T07:56:10;100089.66;;;3.40;70.29
79131;BME280;72396;45.194;9.142;2024-01-16T07:58:36;100088.16;;;3.24;69.99
79131;BME280;72396;45.194;9.142;2024-01-16T08:01:02;100097.50;;;3.37;70.37
79131;BME280;72396;45.194;9.142;2024-01-16T08:03:27;100103.56;;;3.41;70.34
79131;BME280;72396;45.194;9.142;2024-01-16T08:05:53;100092.50;;;3.23;69.95
79131;BME280;72396;45.194;9.142;2024-01-16T08:08:18;100092.38;;;3.33;70.19
79131;BME280;72396;45.194;9.142;2024-01-16T08:10:44;100105.47;;;3.28;70.18
79131;BME280;72396;45.194;9.142;2024-01-16T08:13:09;100098.59;;;3.21;70.81
79131;BME280;72396;45.194;9.142;2024-01-16T08:15:36;100124.66;;;3.22;70.36
79131;BME280;72396;45.194;9.142;2024-01-16T08:18:02;100120.16;;;3.32;70.31
79131;BME280;72396;45.194;9.142;2024-01-16T08:20:27;100121.88;;;3.35;70.54
79131;BME280;72396;45.194;9.142;2024-01-16T08:22:53;100117.47;;;3.41;70.22
79131;BME280;72396;45.194;9.142;2024-01-16T08:25:18;100124.41;;;3.39;70.77
79131;BME280;72396;45.194;9.142;2024-01-16T08:27:43;100128.88;;;3.30;70.73
79131;BME280;72396;45.194;9.142;2024-01-16T08:30:09;100131.25;;;3.50;70.50
79131;BME280;72396;45.194;9.142;2024-01-16T08:32:36;100129.63;;;3.41;70.22
79131;BME280;72396;45.194;9.142;2024-01-16T08:35:02;100119.09;;;3.49;69.73
79131;BME280;72396;45.194;9.142;2024-01-16T08:37:27;100140.97;;;3.35;70.44
79131;BME280;72396;45.194;9.142;2024-01-16T08:39:53;100130.50;;;3.40;70.91
79131;BME280;72396;45.194;9.142;2024-01-16T08:42:18;100139.91;;;3.52;70.38
79131;BME280;72396;45.194;9.142;2024-01-16T08:44:44;100142.53;;;3.50;70.99
79131;BME280;72396;45.194;9.142;2024-01-16T08:47:09;100110.72;;;3.22;71.27
79131;BME280;72396;45.194;9.142;2024-01-16T08:49:35;100142.50;;;3.52;70.81
79131;BME280;72396;45.194;9.142;2024-01-16T08:52:00;100141.41;;;3.70;70.13
79131;BME280;72396;45.194;9.142;2024-01-16T08:54:26;100146.09;;;3.45;70.48
79131;BME280;72396;45.194;9.142;2024-01-16T08:56:52;100156.56;;;3.40;71.10
79131;BME280;72396;45.194;9.142;2024-01-16T08:59:17;100149.47;;;3.51;71.27
79131;BME280;72396;45.194;9.142;2024-01-16T09:01:43;100147.03;;;3.37;71.06
79131;BME280;72396;45.194;9.142;2024-01-16T09:04:08;100158.97;;;3.57;71.01
79131;BME280;72396;45.194;9.142;2024-01-16T09:06:34;100172.16;;;3.45;71.55
79131;BME280;72396;45.194;9.142;2024-01-16T09:08:59;100186.72;;;3.61;71.32
79131;BME280;72396;45.194;9.142;2024-01-16T09:11:24;100174.69;;;3.51;71.37
79131;BME280;72396;45.194;9.142;2024-01-16T09:13:50;100201.25;;;3.79;70.85
79131;BME280;72396;45.194;9.142;2024-01-16T09:16:15;100196.59;;;4.03;69.54
79131;BME280;72396;45.194;9.142;2024-01-16T09:18:40;100209.91;;;3.83;69.91
79131;BME280;72396;45.194;9.142;2024-01-16T09:21:06;100209.25;;;3.65;70.89
79131;BME280;72396;45.194;9.142;2024-01-16T09:23:31;100225.22;;;3.37;71.78
79131;BME280;72396;45.194;9.142;2024-01-16T09:25:56;100212.09;;;3.47;71.21
79131;BME280;72396;45.194;9.142;2024-01-16T09:28:22;100231.94;;;3.59;71.21
79131;BME280;72396;45.194;9.142;2024-01-16T09:30:47;100240.31;;;3.84;71.18
79131;BME280;72396;45.194;9.142;2024-01-16T09:33:13;100229.78;;;3.92;70.58
79131;BME280;72396;45.194;9.142;2024-01-16T09:35:38;100241.66;;;4.15;70.04
79131;BME280;72396;45.194;9.142;2024-01-16T09:38:04;100255.34;;;4.31;70.09
79131;BME280;72396;45.194;9.142;2024-01-16T09:40:32;100253.50;;;3.73;70.84
79131;BME280;72396;45.194;9.142;2024-01-16T09:42:57;100248.97;;;3.86;70.36
79131;BME280;72396;45.194;9.142;2024-01-16T09:45:24;100236.78;;;3.88;70.61
79131;BME280;72396;45.194;9.142;2024-01-16T09:47:51;100263.75;;;3.87;70.71
79131;BME280;72396;45.194;9.142;2024-01-16T09:50:18;100266.69;;;3.62;71.56
79131;BME280;72396;45.194;9.142;2024-01-16T09:52:45;100280.31;;;3.84;71.01
79131;BME280;72396;45.194;9.142;2024-01-16T09:55:11;100273.09;;;4.07;70.33
79131;BME280;72396;45.194;9.142;2024-01-16T09:57:39;100275.63;;;4.11;69.97
79131;BME280;72396;45.194;9.142;2024-01-16T10:00:09;100283.16;;;4.33;69.87
79131;BME280;72396;45.194;9.142;2024-01-16T10:02:41;100283.22;;;4.29;69.23
79131;BME280;72396;45.194;9.142;2024-01-16T10:05:07;100285.06;;;4.22;69.32
79131;BME280;72396;45.194;9.142;2024-01-16T10:07:37;100292.66;;;4.37;69.74
79131;BME280;72396;45.194;9.142;2024-01-16T10:10:02;100291.56;;;4.52;69.42
79131;BME280;72396;45.194;9.142;2024-01-16T10:12:28;100291.50;;;4.55;69.27
79131;BME280;72396;45.194;9.142;2024-01-16T10:14:53;100292.38;;;4.56;68.97
79131;BME280;72396;45.194;9.142;2024-01-16T10:17:19;100294.13;;;4.55;69.15
79131;BME280;72396;45.194;9.142;2024-01-16T10:19:52;100293.28;;;4.53;69.03
79131;BME280;72396;45.194;9.142;2024-01-16T10:22:22;100301.22;;;4.47;69.25
79131;BME280;72396;45.194;9.142;2024-01-16T10:24:50;100295.00;;;4.54;68.84
79131;BME280;72396;45.194;9.142;2024-01-16T10:27:16;100291.38;;;4.65;68.56
79131;BME280;72396;45.194;9.142;2024-01-16T10:29:55;100285.50;;;4.52;68.45
79131;BME280;72396;45.194;9.142;2024-01-16T10:32:33;100294.94;;;4.61;68.56
79131;BME280;72396;45.194;9.142;2024-01-16T10:35:09;100282.28;;;4.33;68.60
79131;BME280;72396;45.194;9.142;2024-01-16T10:37:51;100295.22;;;4.42;67.63
79131;BME280;72396;45.194;9.142;2024-01-16T10:40:18;100292.00;;;4.21;67.78
79131;BME280;72396;45.194;9.142;2024-01-16T10:42:45;100300.50;;;4.36;68.07
79131;BME280;72396;45.194;9.142;2024-01-16T10:45:18;100300.47;;;4.39;68.18
79131;BME280;72396;45.194;9.142;2024-01-16T10:47:45;100306.66;;;4.33;67.54
79131;BME280;72396;45.194;9.142;2024-01-16T10:50:11;100309.16;;;4.41;67.66
79131;BME280;72396;45.194;9.142;2024-01-16T10:52:59;100304.94;;;4.29;67.95
79131;BME280;72396;45.194;9.142;2024-01-16T10:55:27;100302.28;;;4.35;67.40
79131;BME280;72396;45.194;9.142;2024-01-16T10:57:55;100316.19;;;4.36;67.34
79131;BME280;72396;45.194;9.142;2024-01-16T11:00:22;100312.72;;;4.34;67.67
79131;BME280;72396;45.194;9.142;2024-01-16T11:03:07;100317.06;;;4.36;67.77
79131;BME280;72396;45.194;9.142;2024-01-16T11:05:35;100321.19;;;4.51;67.46
79131;BME280;72396;45.194;9.142;2024-01-16T11:08:02;100305.47;;;4.54;66.75
79131;BME280;72396;45.194;9.142;2024-01-16T11:10:31;100315.97;;;4.51;67.63
79131;BME280;72396;45.194;9.142;2024-01-16T11:13:00;100306.16;;;4.67;66.79
79131;BME280;72396;45.194;9.142;2024-01-16T11:15:27;100307.97;;;4.62;66.66
79131;BME280;72396;45.194;9.142;2024-01-16T11:17:55;100303.13;;;4.37;67.88
79131;BME280;72396;45.194;9.142;2024-01-16T11:20:20;100302.78;;;4.61;66.96
79131;BME280;72396;45.194;9.142;2024-01-16T11:22:46;100300.13;;;4.64;66.70
79131;BME280;72396;45.194;9.142;2024-01-16T11:25:14;100310.56;;;4.62;67.51
79131;BME280;72396;45.194;9.142;2024-01-16T11:27:42;100307.97;;;4.62;67.46
79131;BME280;72396;45.194;9.142;2024-01-16T11:30:09;100314.06;;;4.64;67.56
79131;BME280;72396;45.194;9.142;2024-01-16T11:32:39;100298.34;;;4.66;67.20
79131;BME280;72396;45.194;9.142;2024-01-16T11:35:06;100296.38;;;4.80;66.70
79131;BME280;72396;45.194;9.142;2024-01-16T11:37:33;100295.28;;;4.94;67.01
79131;BME280;72396;45.194;9.142;2024-01-16T11:40:22;100292.56;;;5.00;67.12
79131;BME280;72396;45.194;9.142;2024-01-16T11:42:49;100289.28;;;4.87;66.79
79131;BME280;72396;45.194;9.142;2024-01-16T11:45:47;100284.38;;;4.67;67.43
79131;BME280;72396;45.194;9.142;2024-01-16T11:48:14;100270.09;;;4.90;67.45
79131;BME280;72396;45.194;9.142;2024-01-16T11:50:40;100271.72;;;4.97;66.97
79131;BME280;72396;45.194;9.142;2024-01-16T11:53:06;100270.16;;;4.85;67.47
79131;BME280;72396;45.194;9.142;2024-01-16T11:55:33;100270.13;;;4.88;67.48
79131;BME280;72396;45.194;9.142;2024-01-16T12:00:40;100271.00;;;4.87;67.70
79131;BME280;72396;45.194;9.142;2024-01-16T12:03:06;100280.25;;;5.05;67.20
79131;BME280;72396;45.194;9.142;2024-01-16T12:05:33;100274.00;;;5.16;66.71
79131;BME280;72396;45.194;9.142;2024-01-16T12:07:58;100275.03;;;5.05;66.70
79131;BME280;72396;45.194;9.142;2024-01-16T12:10:24;100257.00;;;4.91;66.65
79131;BME280;72396;45.194;9.142;2024-01-16T12:12:51;100264.69;;;4.99;66.83
79131;BME280;72396;45.194;9.142;2024-01-16T12:15:21;100265.31;;;5.14;66.21
79131;BME280;72396;45.194;9.142;2024-01-16T12:17:58;100260.97;;;5.12;66.80
79131;BME280;72396;45.194;9.142;2024-01-16T12:20:25;100263.72;;;5.05;65.99
79131;BME280;72396;45.194;9.142;2024-01-16T12:22:54;100264.59;;;5.05;66.29
79131;BME280;72396;45.194;9.142;2024-01-16T12:25:20;100266.19;;;5.14;66.71
79131;BME280;72396;45.194;9.142;2024-01-16T12:27:53;100266.28;;;5.08;66.48
79131;BME280;72396;45.194;9.142;2024-01-16T12:30:19;100253.28;;;5.05;66.79
79131;BME280;72396;45.194;9.142;2024-01-16T12:32:44;100247.72;;;5.22;66.19
79131;BME280;72396;45.194;9.142;2024-01-16T12:35:10;100260.09;;;5.14;66.16
79131;BME280;72396;45.194;9.142;2024-01-16T12:37:35;100252.31;;;5.10;66.24
79131;BME280;72396;45.194;9.142;2024-01-16T12:40:00;100236.78;;;5.01;66.17
79131;BME280;72396;45.194;9.142;2024-01-16T12:42:26;100215.81;;;5.04;65.83
79131;BME280;72396;45.194;9.142;2024-01-16T12:44:51;100239.13;;;5.17;66.06
79131;BME280;72396;45.194;9.142;2024-01-16T12:47:17;100247.91;;;5.12;65.90
79131;BME280;72396;45.194;9.142;2024-01-16T12:49:44;100235.00;;;5.03;65.64
79131;BME280;72396;45.194;9.142;2024-01-16T12:52:20;100257.28;;;5.24;65.63
79131;BME280;72396;45.194;9.142;2024-01-16T12:54:58;100259.91;;;5.24;65.18
79131;BME280;72396;45.194;9.142;2024-01-16T12:57:25;100227.16;;;5.05;65.45
79131;BME280;72396;45.194;9.142;2024-01-16T12:59:51;100242.75;;;5.08;65.83
79131;BME280;72396;45.194;9.142;2024-01-16T13:02:24;100250.25;;;5.28;65.47
79131;BME280;72396;45.194;9.142;2024-01-16T13:04:59;100224.38;;;5.12;64.91